Time;durP1;ratioP1;P1;durP2;ratioP2;P2;SDS_P1;SDS_P2;PMS_P1;PMS_P2;Temp;Humidity;BMP_temperature;BMP_pressure;BME280_temperature;BME280_humidity;BME280_pressure;Samples;Min_cycle;Max_cycle;Signal;HPM_P1;HPM_P2
2023/12/15 00:00:03;;;;;;;19.67;9.95;;;;;;;5.34;100.00;102667.88;5020235;28;20560;-78
2023/12/15 00:02:29;;;;;;;19.55;9.77;;;;;;;5.35;100.00;102666.94;5042763;28;20369;-78
2023/12/15 00:04:54;;;;;;;19.80;9.55;;;;;;;5.33;100.00;102660.91;5001183;28;20150;-78
2023/12/15 00:07:19;;;;;;;19.90;10.05;;;;;;;5.34;100.00;102660.78;5019106;28;20051;-78
2023/12/15 00:09:45;;;;;;;18.33;8.57;;;;;;;5.38;100.00;102675.47;5013226;28;20055;-78
2023/12/15 00:12:10;;;;;;;18.58;9.32;;;;;;;5.36;100.00;102672.09;5033257;28;20029;-78
2023/12/15 00:14:35;;;;;;;20.90;9.25;;;;;;;5.38;100.00;102678.13;5025260;28;20035;-78
2023/12/15 00:17:02;;;;;;;27.65;10.52;;;;;;;5.39;100.00;102685.09;5037522;28;20399;-78
2023/12/15 00:19:27;;;;;;;25.08;12.45;;;;;;;5.39;100.00;102686.91;5043217;28;20087;-78
2023/12/15 00:21:53;;;;;;;20.65;9.95;;;;;;;5.41;100.00;102696.41;5037874;28;20041;-79
2023/12/15 00:24:18;;;;;;;22.38;10.30;;;;;;;5.43;100.00;102698.94;5038249;28;20067;-78
2023/12/15 00:26:43;;;;;;;18.90;8.88;;;;;;;5.36;100.00;102687.13;5037624;28;20136;-78
2023/12/15 00:29:09;;;;;;;20.70;9.55;;;;;;;5.42;100.00;102703.41;5022962;28;20534;-78
2023/12/15 00:31:35;;;;;;;21.63;10.60;;;;;;;5.40;100.00;102702.66;5039222;28;20029;-78
2023/12/15 00:34:00;;;;;;;26.55;12.40;;;;;;;5.42;100.00;102710.47;5030762;28;20117;-78
2023/12/15 00:36:27;;;;;;;23.05;10.15;;;;;;;5.41;100.00;102695.56;5018440;28;20454;-78
2023/12/15 00:38:52;;;;;;;27.42;11.18;;;;;;;5.41;100.00;102700.84;5020244;28;20372;-78
2023/12/15 00:41:18;;;;;;;20.75;10.40;;;;;;;5.40;100.00;102691.25;5042396;28;20115;-78
2023/12/15 00:43:43;;;;;;;25.45;11.77;;;;;;;5.35;100.00;102690.75;5041933;28;20112;-78
2023/12/15 00:46:08;;;;;;;22.45;9.95;;;;;;;5.36;100.00;102687.13;5042997;28;20059;-78
2023/12/15 00:48:34;;;;;;;21.17;11.07;;;;;;;5.40;100.00;102685.97;5026970;28;20083;-78
2023/12/15 00:50:59;;;;;;;23.88;10.95;;;;;;;5.42;100.00;102697.25;5048811;28;20040;-78
2023/12/15 00:53:25;;;;;;;23.27;10.10;;;;;;;5.42;100.00;102697.25;5035293;28;20035;-78
2023/12/15 00:55:51;;;;;;;24.17;10.55;;;;;;;5.42;100.00;102691.94;5037350;28;20025;-78
2023/12/15 00:58:17;;;;;;;20.75;9.93;;;;;;;5.45;100.00;102703.16;5044212;28;20029;-78
2023/12/15 01:00:42;;;;;;;20.50;10.45;;;;;;;5.45;100.00;102703.16;5034420;28;20391;-78
2023/12/15 01:03:07;;;;;;;26.48;11.60;;;;;;;5.48;100.00;102712.66;5044599;28;20076;-78
2023/12/15 01:05:33;;;;;;;30.35;11.45;;;;;;;5.48;100.00;102710.03;5022730;28;20029;-78
2023/12/15 01:07:58;;;;;;;21.00;10.48;;;;;;;5.49;100.00;102709.06;5042106;28;20044;-78
2023/12/15 01:10:24;;;;;;;24.05;11.52;;;;;;;5.51;100.00;102722.19;5043384;28;20512;-78
2023/12/15 01:12:49;;;;;;;24.70;11.70;;;;;;;5.51;100.00;102724.81;5038194;28;20100;-78
2023/12/15 01:15:14;;;;;;;24.77;11.25;;;;;;;5.49;100.00;102720.47;5045852;28;20057;-78
2023/12/15 01:17:40;;;;;;;25.23;10.52;;;;;;;5.47;100.00;102718.91;5040601;28;20060;-78
2023/12/15 01:20:06;;;;;;;26.85;10.18;;;;;;;5.52;100.00;102722.03;5040986;28;20481;-78
2023/12/15 01:22:31;;;;;;;27.58;14.13;;;;;;;5.53;100.00;102731.69;5042645;28;20061;-78
2023/12/15 01:24:57;;;;;;;27.02;12.68;;;;;;;5.54;100.00;102733.38;5038096;28;20055;-78
2023/12/15 01:27:23;;;;;;;25.55;11.38;;;;;;;5.54;100.00;102730.72;5020533;28;20105;-78
2023/12/15 01:29:48;;;;;;;25.73;11.30;;;;;;;5.53;100.00;102733.47;5031780;28;20037;-78
2023/12/15 01:32:14;;;;;;;28.58;11.95;;;;;;;5.53;100.00;102733.47;5030827;28;20033;-78
2023/12/15 01:34:39;;;;;;;25.30;11.52;;;;;;;5.57;100.00;102746.34;5036751;28;20024;-78
2023/12/15 01:37:04;;;;;;;27.05;12.13;;;;;;;5.57;100.00;102743.72;5022676;28;20392;-78
2023/12/15 01:39:30;;;;;;;29.42;12.77;;;;;;;5.57;100.00;102751.66;5024653;28;20369;-78
2023/12/15 01:41:55;;;;;;;24.52;12.02;;;;;;;5.58;100.00;102748.06;5042946;28;20094;-78
2023/12/15 01:44:20;;;;;;;28.42;11.48;;;;;;;5.52;100.00;102735.28;5032612;28;20175;-78
2023/12/15 01:46:46;;;;;;;27.38;11.98;;;;;;;5.58;100.00;102745.41;5036247;28;20037;-78
2023/12/15 01:49:11;;;;;;;27.92;12.57;;;;;;;5.53;100.00;102741.41;5003670;28;20373;-78
2023/12/15 01:51:37;;;;;;;25.42;11.48;;;;;;;5.59;100.00;102748.91;5045806;28;20116;-78
2023/12/15 01:54:02;;;;;;;30.52;12.10;;;;;;;5.58;100.00;102753.34;5036385;28;20029;-78
2023/12/15 01:56:28;;;;;;;26.60;10.90;;;;;;;5.60;100.00;102764.66;5038559;28;20045;-78
2023/12/15 01:58:53;;;;;;;24.67;11.35;;;;;;;5.62;100.00;102764.53;5019202;28;20030;-78
2023/12/15 02:01:18;;;;;;;30.10;12.77;;;;;;;5.60;100.00;102762.00;5037040;28;20033;-78
2023/12/15 02:03:44;;;;;;;32.08;14.07;;;;;;;5.64;100.00;102767.94;5041028;28;20040;-78
2023/12/15 02:06:09;;;;;;;27.77;13.02;;;;;;;5.65;100.00;102766.94;5044819;28;20029;-78
2023/12/15 02:08:34;;;;;;;30.08;13.57;;;;;;;5.60;100.00;102761.16;5040172;28;20045;-78
2023/12/15 02:11:00;;;;;;;29.35;12.73;;;;;;;5.63;100.00;102774.16;5034318;28;20029;-78
2023/12/15 02:13:25;;;;;;;29.60;13.40;;;;;;;5.66;100.00;102772.13;5043432;28;20033;-78
2023/12/15 02:15:50;;;;;;;28.05;14.20;;;;;;;5.62;100.00;102761.91;5041829;28;20029;-78
2023/12/15 02:18:16;;;;;;;28.98;14.23;;;;;;;5.67;100.00;102775.63;5041934;28;20028;-78
2023/12/15 02:20:41;;;;;;;27.23;12.60;;;;;;;5.68;100.00;102772.00;5037148;28;20029;-78
2023/12/15 02:23:07;;;;;;;26.77;14.38;;;;;;;5.68;100.00;102772.84;5038637;28;20076;-78
2023/12/15 02:25:32;;;;;;;25.85;12.85;;;;;;;5.67;100.00;102771.16;5044577;28;20021;-78
2023/12/15 02:27:57;;;;;;;31.80;13.27;;;;;;;5.66;100.00;102771.31;5029945;28;20036;-78
2023/12/15 02:30:23;;;;;;;25.58;11.30;;;;;;;5.69;100.00;102784.31;5043067;28;20033;-78
2023/12/15 02:32:48;;;;;;;31.88;13.65;;;;;;;5.71;100.00;102791.16;5017116;28;20033;-78
2023/12/15 02:35:14;;;;;;;27.38;12.50;;;;;;;5.66;100.00;102787.19;5032391;28;20044;-78
2023/12/15 02:37:39;;;;;;;27.05;11.75;;;;;;;5.68;100.00;102788.72;5038279;28;20033;-78
2023/12/15 02:40:06;;;;;;;26.27;12.15;;;;;;;5.71;100.00;102803.53;5022703;28;20144;-78
2023/12/15 02:42:32;;;;;;;25.20;11.02;;;;;;;5.70;100.00;102801.88;5039747;28;20109;-78
2023/12/15 02:44:59;;;;;;;26.95;12.18;;;;;;;5.72;100.00;102805.25;5020469;28;20455;-78
2023/12/15 02:47:25;;;;;;;29.13;13.32;;;;;;;5.71;100.00;102809.69;5035490;28;20017;-78
2023/12/15 02:49:50;;;;;;;28.38;12.85;;;;;;;5.71;100.00;102817.63;5039980;28;20031;-78
2023/12/15 02:52:15;;;;;;;24.08;12.05;;;;;;;5.73;100.00;102822.81;5039089;28;20025;-78
2023/12/15 02:54:41;;;;;;;29.45;13.15;;;;;;;5.74;100.00;102826.28;5041366;28;20040;-78
2023/12/15 02:57:06;;;;;;;27.80;12.98;;;;;;;5.72;100.00;102824.59;5033202;28;20029;-78
2023/12/15 02:59:31;;;;;;;30.88;14.38;;;;;;;5.75;100.00;102828.00;5041045;28;20056;-78
2023/12/15 03:01:57;;;;;;;29.77;12.95;;;;;;;5.75;100.00;102828.00;5034388;28;20041;-78
2023/12/15 03:04:22;;;;;;;28.30;12.85;;;;;;;5.76;100.00;102827.03;5047241;28;20121;-78
2023/12/15 03:06:47;;;;;;;26.55;13.48;;;;;;;5.76;100.00;102830.50;5035919;28;20116;-78
2023/12/15 03:09:13;;;;;;;26.08;12.40;;;;;;;5.71;100.00;102819.41;5039648;28;20037;-78
2023/12/15 03:11:38;;;;;;;27.23;13.80;;;;;;;5.76;100.00;102827.03;5040987;28;20028;-78
2023/12/15 03:14:04;;;;;;;29.38;14.60;;;;;;;5.80;100.00;102831.13;5036028;28;20055;-77
2023/12/15 03:16:29;;;;;;;27.52;11.82;;;;;;;5.77;100.00;102837.50;5028055;28;20136;-78
2023/12/15 03:18:54;;;;;;;30.90;16.08;;;;;;;5.81;100.00;102844.25;5038779;28;20082;-78
2023/12/15 03:21:20;;;;;;;28.50;12.65;;;;;;;5.82;100.00;102848.59;5042575;28;20033;-78
2023/12/15 03:23:45;;;;;;;28.95;13.52;;;;;;;5.82;100.00;102855.69;5038012;28;20103;-78
2023/12/15 03:26:10;;;;;;;31.63;12.82;;;;;;;5.82;100.00;102853.88;5040719;28;20064;-78
2023/12/15 03:28:39;;;;;;;33.97;14.27;;;;;;;5.86;100.00;102857.13;5022602;28;20051;-78
2023/12/15 03:31:04;;;;;;;34.88;12.45;;;;;;;5.82;100.00;102859.19;5024685;28;20030;-78
2023/12/15 03:33:36;;;;;;;31.52;14.32;;;;;;;5.86;100.00;102871.22;5040627;28;20397;-78
2023/12/15 03:36:05;;;;;;;;;;;;;;;5.87;100.00;102872.09;5033559;28;20049;-78
2023/12/15 03:38:31;;;;;;;28.85;13.02;;;;;;;5.87;100.00;102882.69;5009033;28;19964;-78
2023/12/15 03:40:56;;;;;;;30.73;13.98;;;;;;;5.83;100.00;102879.41;5041119;28;20076;-78
2023/12/15 03:43:21;;;;;;;33.28;14.38;;;;;;;5.88;100.00;102890.50;5036346;28;20480;-78
2023/12/15 03:45:47;;;;;;;34.65;14.70;;;;;;;5.88;100.00;102882.53;5018390;28;20025;-78
2023/12/15 03:48:12;;;;;;;30.85;12.35;;;;;;;5.87;100.00;102887.97;5047657;28;20441;-78
2023/12/15 03:50:37;;;;;;;34.42;15.82;;;;;;;5.91;100.00;102892.91;5029219;28;20034;-78
2023/12/15 03:53:03;;;;;;;35.53;15.05;;;;;;;5.91;100.00;102884.97;5040737;28;20055;-78
2023/12/15 03:55:28;;;;;;;32.40;13.63;;;;;;;5.93;100.00;102892.81;5041091;28;20037;-77
2023/12/15 03:57:53;;;;;;;34.85;14.00;;;;;;;5.93;100.00;102890.16;5028810;28;20060;-78
2023/12/15 04:00:20;;;;;;;33.80;16.25;;;;;;;5.93;100.00;102893.66;5041638;28;20172;-78
2023/12/15 04:02:46;;;;;;;34.50;14.50;;;;;;;5.93;100.00;102898.09;5031051;28;20404;-78
2023/12/15 04:05:12;;;;;;;33.35;14.55;;;;;;;5.95;100.00;102901.50;5018569;28;20040;-77
2023/12/15 04:07:37;;;;;;;37.35;15.95;;;;;;;5.96;100.00;102899.69;5028171;28;20026;-77
2023/12/15 04:10:03;;;;;;;35.63;16.10;;;;;;;5.99;100.00;102899.47;5042661;28;20563;-77
2023/12/15 04:12:28;;;;;;;35.13;14.93;;;;;;;5.98;100.00;102900.44;5043618;28;20135;-77
2023/12/15 04:14:54;;;;;;;34.38;16.25;;;;;;;6.00;100.00;102909.09;5036636;28;20032;-77
2023/12/15 04:17:19;;;;;;;34.67;14.55;;;;;;;6.01;100.00;102906.34;5021322;28;20060;-77
2023/12/15 04:19:44;;;;;;;37.38;15.02;;;;;;;6.01;100.00;102916.94;5035565;28;20025;-77
2023/12/15 04:22:10;;;;;;;33.70;14.55;;;;;;;6.00;100.00;102909.09;5043551;28;20120;-77
2023/12/15 04:24:35;;;;;;;33.70;17.00;;;;;;;6.01;100.00;102910.78;5038961;28;20085;-77
2023/12/15 04:27:00;;;;;;;39.15;17.65;;;;;;;6.04;100.00;102924.66;5025851;28;21021;-77
2023/12/15 04:29:26;;;;;;;36.25;15.60;;;;;;;6.05;100.00;102926.34;5046119;28;20044;-77
2023/12/15 04:31:51;;;;;;;35.03;15.25;;;;;;;6.03;100.00;102922.97;5025381;28;20128;-77
2023/12/15 04:34:17;;;;;;;39.92;18.15;;;;;;;6.07;100.00;102920.91;5037527;28;20029;-77
2023/12/15 04:36:42;;;;;;;36.85;15.27;;;;;;;6.05;100.00;102918.41;5031700;28;20033;-77
2023/12/15 04:39:08;;;;;;;39.13;17.48;;;;;;;6.08;100.00;102933.22;5020752;28;20388;-77
2023/12/15 04:41:33;;;;;;;32.90;14.30;;;;;;;6.07;100.00;102936.81;5017428;28;20072;-77
2023/12/15 04:43:58;;;;;;;39.80;16.55;;;;;;;6.03;100.00;102933.56;5040592;28;20029;-77
2023/12/15 04:46:30;;;;;;;34.97;14.23;;;;;;;6.08;100.00;102938.53;5047326;28;20021;-77
2023/12/15 04:48:57;;;;;;;;;;;;;;;6.13;100.00;102946.94;5043796;28;20032;-77
2023/12/15 04:51:23;;;;;;;45.13;18.50;;;;;;;6.13;100.00;102952.22;5026733;28;19921;-77
2023/12/15 04:53:49;;;;;;;39.70;16.50;;;;;;;6.12;100.00;102946.09;5034161;28;20051;-77
2023/12/15 04:56:15;;;;;;;37.55;16.23;;;;;;;6.12;100.00;102953.22;5038816;28;20408;-76
2023/12/15 04:58:41;;;;;;;38.97;18.00;;;;;;;6.09;100.00;102946.34;5033113;28;20452;-76
2023/12/15 05:01:13;;;;;;;36.30;15.20;;;;;;;6.12;100.00;102950.56;5033168;28;20108;-77
2023/12/15 05:03:42;;;;;;;38.83;17.65;;;;;;;6.15;100.00;102948.50;5031864;28;20064;-77
2023/12/15 05:06:21;;;;;;;38.80;16.48;;;;;;;6.17;100.00;102953.72;5034876;28;20108;-76
2023/12/15 05:08:47;;;;;;;37.63;14.95;;;;;;;6.17;100.00;102939.63;5033750;28;20104;-77
2023/12/15 05:11:13;;;;;;;36.67;15.88;;;;;;;6.17;100.00;102945.75;5044658;28;20028;-76
2023/12/15 05:13:38;;;;;;;36.28;15.43;;;;;;;6.13;100.00;102939.00;5042860;28;20044;-76
2023/12/15 05:16:05;;;;;;;39.55;17.73;;;;;;;6.15;100.00;102952.97;5023908;28;20040;-77
2023/12/15 05:18:30;;;;;;;42.92;17.30;;;;;;;6.17;100.00;102966.94;5016211;28;20037;-77
2023/12/15 05:20:55;;;;;;;37.72;16.92;;;;;;;6.22;100.00;102969.25;5038780;28;20024;-77
2023/12/15 05:23:21;;;;;;;39.75;17.17;;;;;;;6.23;100.00;102978.88;5042255;28;20061;-77
2023/12/15 05:25:46;;;;;;;38.13;18.45;;;;;;;6.24;100.00;102975.31;5025246;28;20566;-77
2023/12/15 05:28:12;;;;;;;47.80;18.40;;;;;;;6.21;100.00;102972.84;5041815;28;20056;-77
2023/12/15 05:30:37;;;;;;;36.95;17.05;;;;;;;6.23;100.00;102982.38;5026119;28;20033;-77
2023/12/15 05:33:03;;;;;;;40.58;15.90;;;;;;;6.23;100.00;102982.38;5028221;28;20041;-77
2023/12/15 05:35:28;;;;;;;36.58;16.23;;;;;;;6.27;100.00;102993.59;5036442;28;20029;-77
2023/12/15 05:37:54;;;;;;;39.97;16.70;;;;;;;6.28;100.00;102995.28;5042593;28;20120;-77
2023/12/15 05:40:19;;;;;;;44.08;17.60;;;;;;;6.29;100.00;103005.78;5039859;28;20050;-77
2023/12/15 05:42:44;;;;;;;47.35;19.05;;;;;;;6.30;100.00;103011.94;5043575;28;20036;-77
2023/12/15 05:45:10;;;;;;;46.90;18.75;;;;;;;6.31;100.00;103017.13;5040279;28;20029;-77
2023/12/15 05:47:37;;;;;;;47.10;17.27;;;;;;;6.33;100.00;103017.00;5035197;28;20037;-76
2023/12/15 05:50:02;;;;;;;42.58;18.58;;;;;;;6.29;100.00;103013.72;5049798;28;20037;-76
2023/12/15 05:52:28;;;;;;;39.00;15.15;;;;;;;6.32;100.00;103020.63;5026337;28;20059;-76
2023/12/15 05:54:53;;;;;;;38.10;15.98;;;;;;;6.31;100.00;103014.47;5050641;28;20153;-76
2023/12/15 05:57:18;;;;;;;46.03;20.65;;;;;;;6.33;100.00;103011.69;5044624;28;20021;-76
2023/12/15 05:59:44;;;;;;;37.03;17.20;;;;;;;6.31;100.00;103003.00;5047746;28;20025;-76
2023/12/15 06:02:09;;;;;;;46.53;20.52;;;;;;;6.32;100.00;103010.00;5031345;28;20029;-76
2023/12/15 06:04:35;;;;;;;44.45;17.70;;;;;;;6.33;100.00;103011.69;5021484;28;20041;-76
2023/12/15 06:07:01;;;;;;;38.85;18.15;;;;;;;6.31;100.00;103003.00;5045657;28;20122;-76
2023/12/15 06:09:26;;;;;;;35.15;17.23;;;;;;;6.34;100.00;103011.59;5027599;28;20049;-76
2023/12/15 06:11:53;;;;;;;43.17;17.33;;;;;;;6.31;100.00;103000.34;5038616;28;20034;-76
2023/12/15 06:14:20;;;;;;;45.10;20.70;;;;;;;6.35;100.00;103009.78;5031270;28;20026;-76
2023/12/15 06:16:46;;;;;;;45.65;17.65;;;;;;;6.39;100.00;103019.16;5040931;28;20072;-76
2023/12/15 06:19:11;;;;;;;42.47;18.60;;;;;;;6.40;100.00;103022.69;5022627;28;20056;-76
2023/12/15 06:21:37;;;;;;;45.30;19.05;;;;;;;6.40;100.00;103028.81;5043651;28;20035;-77
2023/12/15 06:24:03;;;;;;;45.35;18.77;;;;;;;6.40;100.00;103025.34;5043621;28;20053;-77
2023/12/15 06:26:28;;;;;;;44.65;19.95;;;;;;;6.37;100.00;103018.47;5038607;28;20021;-77
2023/12/15 06:28:54;;;;;;;44.00;19.02;;;;;;;6.42;100.00;103032.22;5022064;28;20804;-77
2023/12/15 06:31:20;;;;;;;41.72;18.95;;;;;;;6.42;100.00;103034.88;5041181;28;20546;-77
2023/12/15 06:33:45;;;;;;;53.70;21.48;;;;;;;6.42;100.00;103034.00;5024259;28;20175;-77
2023/12/15 06:36:11;;;;;;;46.60;19.33;;;;;;;6.34;100.00;103029.28;5040744;28;20030;-77
2023/12/15 06:38:39;;;;;;;47.72;18.23;;;;;;;6.43;100.00;103048.97;5030775;28;20370;-77
2023/12/15 06:41:05;;;;;;;46.88;20.67;;;;;;;6.43;100.00;103055.09;5046983;28;20548;-77
2023/12/15 06:43:31;;;;;;;46.22;20.30;;;;;;;6.43;100.00;103055.09;5039345;28;20094;-77
2023/12/15 06:45:56;;;;;;;46.58;20.77;;;;;;;6.43;100.00;103057.75;5041173;28;20104;-77
2023/12/15 06:48:22;;;;;;;46.65;19.58;;;;;;;6.35;100.00;103042.41;5042409;28;20033;-77
2023/12/15 06:50:47;;;;;;;43.05;19.88;;;;;;;6.43;100.00;103048.97;5042137;28;20080;-77
2023/12/15 06:53:13;;;;;;;43.97;19.10;;;;;;;6.43;100.00;103047.16;5032800;28;20056;-77
2023/12/15 06:55:38;;;;;;;42.15;19.55;;;;;;;6.46;100.00;103060.16;5045402;28;20098;-77
2023/12/15 06:58:03;;;;;;;46.97;18.42;;;;;;;6.46;100.00;103059.31;5019296;28;20067;-77
2023/12/15 07:00:29;;;;;;;46.40;19.67;;;;;;;6.46;100.00;103060.16;5036261;28;20044;-77
2023/12/15 07:02:54;;;;;;;43.35;21.05;;;;;;;6.47;100.00;103067.19;5015355;28;20435;-77
2023/12/15 07:05:19;;;;;;;45.05;21.08;;;;;;;6.44;100.00;103072.69;5034252;28;20068;-77
2023/12/15 07:07:45;;;;;;;43.55;17.27;;;;;;;6.44;100.00;103072.69;5047175;28;20037;-77
2023/12/15 07:10:10;;;;;;;48.35;20.08;;;;;;;6.40;100.00;103073.88;5034937;28;20079;-77
2023/12/15 07:12:36;;;;;;;49.25;19.30;;;;;;;6.43;100.00;103075.47;5037215;28;20492;-77
2023/12/15 07:15:01;;;;;;;40.83;19.95;;;;;;;6.43;100.00;103086.91;5013957;28;20487;-77
2023/12/15 07:17:26;;;;;;;43.83;20.10;;;;;;;6.48;100.00;103100.66;5040070;28;20041;-77
2023/12/15 07:19:52;;;;;;;43.45;18.70;;;;;;;6.45;100.00;103090.28;5037676;28;20124;-77
2023/12/15 07:22:17;;;;;;;51.10;20.73;;;;;;;6.48;100.00;103099.81;5034048;28;20476;-76
2023/12/15 07:24:43;;;;;;;45.20;21.23;;;;;;;6.47;100.00;103095.47;5039978;28;20491;-77
2023/12/15 07:27:08;;;;;;;45.28;23.05;;;;;;;6.47;100.00;103098.97;5036939;28;20472;-77
2023/12/15 07:29:33;;;;;;;45.33;20.95;;;;;;;6.44;100.00;103101.84;5030076;28;20116;-77
2023/12/15 07:31:59;;;;;;;52.90;19.23;;;;;;;6.44;100.00;103101.84;5021847;28;20025;-77
2023/12/15 07:34:24;;;;;;;46.22;19.90;;;;;;;6.45;100.00;103106.19;5035413;28;20067;-77
2023/12/15 07:36:50;;;;;;;46.22;20.17;;;;;;;6.47;100.00;103114.00;5042549;28;20037;-82
2023/12/15 07:39:21;;;;;;;48.95;19.63;;;;;;;6.49;100.00;103110.28;5034871;28;20746;-83
2023/12/15 07:41:50;;;;;;;45.50;20.48;;;;;;;6.49;100.00;103120.06;5036194;28;20029;-83
2023/12/15 07:44:16;;;;;;;46.63;21.17;;;;;;;6.50;100.00;103125.25;5040492;28;20122;-84
2023/12/15 07:46:42;;;;;;;49.40;20.48;;;;;;;6.49;100.00;103128.84;5031635;28;20030;-84
2023/12/15 07:49:09;;;;;;;43.22;19.30;;;;;;;6.53;100.00;103135.63;5034437;28;20480;-83
2023/12/15 07:51:34;;;;;;;51.58;23.20;;;;;;;6.53;100.00;103125.03;5030675;28;20037;-84
2023/12/15 07:53:59;;;;;;;47.75;20.20;;;;;;;6.56;100.00;103140.69;5036747;28;20033;-83
2023/12/15 07:56:27;;;;;;;54.75;20.70;;;;;;;6.57;100.00;103142.38;5033657;28;20144;-83
2023/12/15 07:58:55;;;;;;;49.08;21.92;;;;;;;6.56;100.00;103143.34;5030905;28;20056;-84
2023/12/15 08:01:23;;;;;;;43.63;19.33;;;;;;;6.57;100.00;103146.84;5035107;28;20044;-83
2023/12/15 08:03:48;;;;;;;46.92;20.52;;;;;;;6.61;100.00;103156.28;5030500;28;20103;-83
2023/12/15 08:06:16;;;;;;;54.67;22.30;;;;;;;6.63;100.00;103158.78;5032889;28;20083;-83
2023/12/15 08:08:43;;;;;;;44.75;20.70;;;;;;;6.64;100.00;103153.38;5034694;28;20017;-82
2023/12/15 08:11:10;;;;;;;45.50;21.38;;;;;;;6.67;100.00;103162.94;5032949;28;20835;-83
2023/12/15 08:13:38;;;;;;;50.80;22.00;;;;;;;6.63;100.00;103151.72;5034261;28;20014;-83
2023/12/15 08:16:04;;;;;;;47.95;18.33;;;;;;;6.70;100.00;103166.19;5037539;28;20042;-82
2023/12/15 08:18:30;;;;;;;47.55;22.60;;;;;;;6.68;100.00;103169.91;5028954;28;20026;-82
2023/12/15 08:20:56;;;;;;;41.15;21.17;;;;;;;6.66;100.00;103166.56;5019682;28;20052;-83
2023/12/15 08:23:21;;;;;;;46.83;19.73;;;;;;;6.74;100.00;103185.38;5002810;28;20041;-83
2023/12/15 08:25:47;;;;;;;44.10;19.73;;;;;;;6.72;100.00;103189.94;5035002;28;20083;-82
2023/12/15 08:28:12;;;;;;;49.63;22.35;;;;;;;6.76;100.00;103196.72;5021724;28;20580;-83
2023/12/15 08:30:39;;;;;;;40.90;18.00;;;;;;;6.78;100.00;103192.97;5037156;28;20037;-82
2023/12/15 08:33:04;;;;;;;44.45;18.92;;;;;;;6.78;100.00;103197.44;5038543;28;20037;-81
2023/12/15 08:35:31;;;;;;;44.60;19.58;;;;;;;6.81;100.00;103205.16;5037200;28;20387;-80
2023/12/15 08:37:57;;;;;;;46.63;18.42;;;;;;;6.83;100.00;103211.22;5020520;28;20091;-80
2023/12/15 08:40:23;;;;;;;44.97;18.50;;;;;;;6.83;100.00;103208.56;5036400;28;20435;-79
2023/12/15 08:42:48;;;;;;;40.63;17.98;;;;;;;6.85;100.00;103217.25;5036689;28;20043;-81
2023/12/15 08:45:14;;;;;;;44.58;21.40;;;;;;;6.89;100.00;103233.78;5035697;28;20025;-81
2023/12/15 08:47:39;;;;;;;41.00;18.45;;;;;;;6.90;100.00;103233.69;5021009;28;20026;-82
2023/12/15 08:50:05;;;;;;;42.60;19.25;;;;;;;6.93;100.00;103241.41;5037385;28;20025;-82
2023/12/15 08:52:30;;;;;;;49.30;21.55;;;;;;;6.95;100.00;103246.59;5037999;28;20516;-83
2023/12/15 08:54:56;;;;;;;46.75;21.92;;;;;;;6.95;100.00;103243.97;5021379;28;20027;-82
2023/12/15 08:57:22;;;;;;;42.45;18.35;;;;;;;7.00;100.00;103249.78;5037230;28;20037;-83
2023/12/15 08:59:47;;;;;;;49.28;20.13;;;;;;;7.02;100.00;103251.34;5020495;28;20069;-83
2023/12/15 09:02:12;;;;;;;45.10;17.95;;;;;;;7.02;100.00;103253.13;5040121;28;20108;-83
2023/12/15 09:04:38;;;;;;;38.10;18.65;;;;;;;7.08;100.00;103243.91;5037423;28;20053;-81
2023/12/15 09:07:03;;;;;;;52.42;20.50;;;;;;;7.07;100.00;103248.31;5042314;28;20056;-83
2023/12/15 09:09:29;;;;;;;52.80;21.80;;;;;;;7.16;100.00;103255.63;5039224;28;20044;-84
2023/12/15 09:11:54;;;;;;;49.88;22.38;;;;;;;7.16;100.00;103252.13;5039761;28;20037;-83
2023/12/15 09:14:21;;;;;;;44.55;20.15;;;;;;;7.18;100.00;103256.34;5018974;28;20958;-83
2023/12/15 09:16:47;;;;;;;40.22;19.90;;;;;;;7.22;100.00;103259.63;5038493;28;20037;-82
2023/12/15 09:19:13;;;;;;;50.20;22.35;;;;;;;7.24;100.00;103263.00;5038446;28;20116;-83
2023/12/15 09:21:38;;;;;;;51.72;21.35;;;;;;;7.24;100.00;103265.66;5037861;28;20033;-83
2023/12/15 09:24:04;;;;;;;47.17;20.77;;;;;;;7.29;100.00;103276.78;5035858;28;20049;-81
2023/12/15 09:26:30;;;;;;;44.83;20.08;;;;;;;7.31;100.00;103268.69;5034324;28;20120;-83
2023/12/15 09:28:55;;;;;;;42.33;19.70;;;;;;;7.35;100.00;103286.09;5040575;28;20060;-85
2023/12/15 09:31:21;;;;;;;40.85;21.20;;;;;;;7.36;100.00;103287.78;5007149;28;20029;-83
2023/12/15 09:33:46;;;;;;;47.72;21.10;;;;;;;7.36;100.00;103286.00;5038438;28;20032;-82
2023/12/15 09:36:11;;;;;;;44.25;18.88;;;;;;;7.34;100.00;103285.25;5034650;28;20116;-83
2023/12/15 09:38:37;;;;;;;50.90;19.52;;;;;;;7.42;100.00;103290.81;5018998;28;20129;-83
2023/12/15 09:41:03;;;;;;;44.25;18.90;;;;;;;7.47;100.00;103309.06;5037899;28;20052;-82
2023/12/15 09:43:29;;;;;;;44.15;19.20;;;;;;;7.48;100.00;103302.78;5020722;28;20042;-82
2023/12/15 09:45:58;;;;;;;46.72;20.10;;;;;;;7.54;100.00;103320.91;5006319;28;20036;-81
2023/12/15 09:48:25;;;;;;;47.60;19.92;;;;;;;7.53;100.00;103326.34;5037995;28;20037;-81
2023/12/15 09:50:53;;;;;;;44.83;19.02;;;;;;;7.55;100.00;103335.06;5036018;28;20030;-82
2023/12/15 09:53:19;;;;;;;43.38;18.85;;;;;;;7.57;100.00;103341.06;5036932;28;20075;-82
2023/12/15 09:55:45;;;;;;;55.05;19.98;;;;;;;7.58;100.00;103358.72;5037948;28;20040;-83
2023/12/15 09:58:10;;;;;;;44.72;17.77;;;;;;;7.60;100.00;103354.97;5019405;28;20036;-82
2023/12/15 10:00:36;;;;;;;46.90;22.88;;;;;;;7.61;100.00;103354.00;5020125;28;20124;-83
2023/12/15 10:03:01;;;;;;;48.88;19.23;;;;;;;7.55;100.00;103343.84;5007400;28;20481;-82
2023/12/15 10:05:28;;;;;;;40.38;17.88;;;;;;;7.65;100.00;103352.81;5039151;28;20112;-83
2023/12/15 10:07:53;;;;;;;43.60;19.30;;;;;;;7.69;100.00;103356.09;5039372;28;20059;-84
2023/12/15 10:10:23;;;;;;;46.00;20.70;;;;;;;7.68;100.00;103347.28;5035213;28;20547;-85
2023/12/15 10:12:49;;;;;;;42.45;18.70;;;;;;;7.76;100.00;103362.63;5019611;28;20084;-83
2023/12/15 10:15:14;;;;;;;44.72;20.45;;;;;;;7.78;100.00;103374.00;5018569;28;20026;-83
2023/12/15 10:17:40;;;;;;;45.88;20.20;;;;;;;7.77;100.00;103374.94;5037527;28;20469;-83
2023/12/15 10:20:10;;;;;;;48.90;17.60;;;;;;;7.78;100.00;103387.28;5037582;28;20083;-83
2023/12/15 10:22:38;;;;;;;44.33;18.88;;;;;;;7.77;100.00;103388.22;5037442;28;20033;-83
2023/12/15 10:25:23;;;;;;;37.08;17.00;;;;;;;7.76;100.00;103386.56;5023826;28;20447;-82
2023/12/15 10:27:49;;;;;;;42.35;16.50;;;;;;;7.75;100.00;103384.84;5036338;28;20029;-84
2023/12/15 10:30:17;;;;;;;39.33;16.30;;;;;;;7.72;100.00;103373.59;5017292;28;20028;-84
2023/12/15 10:32:46;;;;;;;39.25;17.90;;;;;;;7.83;100.00;103389.56;5025460;28;20037;-84
2023/12/15 10:35:12;;;;;;;43.03;17.65;;;;;;;7.87;100.00;103396.38;5019723;28;20084;-84
2023/12/15 10:37:38;;;;;;;43.92;17.73;;;;;;;7.89;100.00;103405.91;5032523;28;20037;-84
2023/12/15 10:40:04;;;;;;;36.90;17.85;;;;;;;7.91;100.00;103411.09;5040558;28;20543;-84
2023/12/15 10:42:30;;;;;;;36.88;15.50;;;;;;;7.91;100.00;103411.09;5020344;28;20479;-83
2023/12/15 10:44:58;;;;;;;39.65;16.90;;;;;;;7.92;100.00;103423.44;5036676;28;20139;-82
2023/12/15 10:47:24;;;;;;;38.95;14.82;;;;;;;7.92;100.00;103417.28;5038374;28;20029;-80
2023/12/15 10:49:54;;;;;;;35.03;18.20;;;;;;;7.91;100.00;103429.69;5034461;28;20033;-83
2023/12/15 10:52:21;;;;;;;34.75;14.68;;;;;;;7.88;100.00;103427.28;5037502;28;20021;-82
2023/12/15 10:54:50;;;;;;;37.05;17.88;;;;;;;7.90;100.00;103434.16;5038937;28;20033;-83
2023/12/15 10:57:15;;;;;;;36.45;15.38;;;;;;;7.88;100.00;103432.59;5035761;28;20128;-83
2023/12/15 10:59:41;;;;;;;33.30;13.65;;;;;;;7.93;100.00;103433.09;5018428;28;20153;-83
2023/12/15 11:02:12;;;;;;;42.47;17.52;;;;;;;7.95;100.00;103441.81;5038624;28;20452;-83